createdAt,value
2023-10-09T00:00:10.263Z,12.58
2023-10-09T00:01:10.238Z,12.62
2023-10-09T00:02:10.215Z,12.61
2023-10-09T00:03:10.254Z,12.61
2023-10-09T00:04:10.259Z,12.57
2023-10-09T00:05:10.180Z,12.57
2023-10-09T00:06:10.242Z,12.55
2023-10-09T00:07:10.199Z,12.54
2023-10-09T00:08:10.285Z,12.54
2023-10-09T00:09:10.162Z,12.53
2023-10-09T00:10:10.105Z,12.53
2023-10-09T00:11:10.110Z,12.51
2023-10-09T00:12:10.133Z,12.50
2023-10-09T00:13:10.054Z,12.50
2023-10-09T00:14:10.049Z,12.48
2023-10-09T00:15:10.081Z,12.47
2023-10-09T00:16:10.092Z,12.45
2023-10-09T00:17:09.998Z,12.45
2023-10-09T00:18:10.101Z,12.43
2023-10-09T00:19:09.972Z,12.40
2023-10-09T00:20:09.980Z,12.44
2023-10-09T00:21:10.021Z,12.40
2023-10-09T00:22:09.955Z,12.39
2023-10-09T00:23:09.913Z,12.39
2023-10-09T00:24:09.938Z,12.36
2023-10-09T00:25:09.905Z,12.37
2023-10-09T00:26:09.890Z,12.37
2023-10-09T00:27:09.884Z,12.39
2023-10-09T00:28:09.857Z,12.37
2023-10-09T00:29:09.835Z,12.39
2023-10-09T00:30:09.879Z,12.37
2023-10-09T00:31:09.819Z,12.33
2023-10-09T00:32:09.809Z,12.33
2023-10-09T00:33:09.841Z,12.32
2023-10-09T00:34:09.794Z,12.32
2023-10-09T00:35:09.771Z,12.32
2023-10-09T00:36:09.826Z,12.35
2023-10-09T00:37:09.722Z,12.35
2023-10-09T00:38:09.718Z,12.36
2023-10-09T00:39:09.783Z,12.36
2023-10-09T00:40:09.690Z,12.36
2023-10-09T00:41:09.674Z,12.37
2023-10-09T00:42:09.712Z,12.37
2023-10-09T00:43:09.645Z,12.37
2023-10-09T00:44:09.658Z,12.36
2023-10-09T00:45:09.736Z,12.39
2023-10-09T00:46:09.652Z,12.36
2023-10-09T00:47:09.590Z,12.35
2023-10-09T00:48:09.781Z,12.33
2023-10-09T00:49:09.580Z,12.32
2023-10-09T00:50:09.552Z,12.32
2023-10-09T00:51:09.556Z,12.29
2023-10-09T00:52:09.526Z,12.29
2023-10-09T00:53:09.520Z,12.30
2023-10-09T00:54:09.552Z,12.30
2023-10-09T00:55:09.478Z,12.29
2023-10-09T00:56:09.474Z,12.28
2023-10-09T00:57:09.503Z,12.29
2023-10-09T00:58:09.453Z,12.25
2023-10-09T00:59:09.466Z,12.23
2023-10-09T01:00:09.449Z,12.23
2023-10-09T01:01:09.413Z,12.23
2023-10-09T01:02:09.397Z,12.25
2023-10-09T01:03:09.455Z,12.21
2023-10-09T01:04:09.653Z,12.20
2023-10-09T01:05:09.359Z,12.21
2023-10-09T01:06:09.346Z,12.20
2023-10-09T01:07:09.327Z,12.21
2023-10-09T01:08:09.324Z,12.23
2023-10-09T01:09:09.362Z,12.25
2023-10-09T01:10:09.279Z,12.25
2023-10-09T01:11:09.272Z,12.25
2023-10-09T01:12:09.328Z,12.25
2023-10-09T01:13:09.280Z,12.23
2023-10-09T01:14:09.231Z,12.25
2023-10-09T01:15:09.245Z,12.25
2023-10-09T01:16:09.262Z,12.23
2023-10-09T01:17:09.210Z,12.21
2023-10-09T01:18:09.313Z,12.20
2023-10-09T01:19:09.162Z,12.18
2023-10-09T01:20:09.159Z,12.18
2023-10-09T01:21:09.170Z,12.17
2023-10-09T01:22:09.127Z,12.15
2023-10-09T01:23:09.128Z,12.14
2023-10-09T01:24:09.156Z,12.12
2023-10-09T01:25:09.074Z,12.12
2023-10-09T01:26:09.074Z,12.11
2023-10-09T01:27:09.059Z,12.08
2023-10-09T01:28:09.055Z,12.10
2023-10-09T01:29:09.022Z,12.08
2023-10-09T01:30:09.039Z,12.10
2023-10-09T01:31:09.055Z,12.10
2023-10-09T01:32:08.998Z,12.12
2023-10-09T01:33:09.069Z,12.12
2023-10-09T01:34:08.964Z,12.14
2023-10-09T01:35:08.961Z,12.15
2023-10-09T01:36:09.000Z,12.14
2023-10-09T01:37:08.935Z,12.15
2023-10-09T01:38:08.896Z,12.17
2023-10-09T01:39:08.941Z,12.17
2023-10-09T01:40:08.891Z,12.12
2023-10-09T01:41:08.878Z,12.12
2023-10-09T01:42:08.922Z,12.11
2023-10-09T01:43:08.840Z,12.10
2023-10-09T01:44:08.839Z,12.08
2023-10-09T01:45:08.860Z,12.08
2023-10-09T01:46:08.887Z,12.10
2023-10-09T01:47:08.898Z,12.10
2023-10-09T01:48:08.801Z,12.12
2023-10-09T01:49:08.761Z,12.12
2023-10-09T01:50:08.737Z,12.10
2023-10-09T01:51:08.760Z,12.11
2023-10-09T01:52:08.716Z,12.12
2023-10-09T01:53:08.707Z,12.11
2023-10-09T01:54:08.703Z,12.14
2023-10-09T01:55:08.690Z,12.14
2023-10-09T01:56:08.683Z,12.14
2023-10-09T01:57:08.666Z,12.12
2023-10-09T01:58:08.630Z,12.11
2023-10-09T01:59:08.617Z,12.11
2023-10-09T02:00:08.654Z,12.12
2023-10-09T02:01:08.646Z,12.11
2023-10-09T02:02:08.582Z,12.11
2023-10-09T02:03:08.718Z,12.11
2023-10-09T02:04:08.651Z,12.10
2023-10-09T02:05:08.556Z,12.08
2023-10-09T02:06:08.577Z,12.08
2023-10-09T02:07:08.518Z,12.08
2023-10-09T02:08:08.498Z,12.08
2023-10-09T02:09:08.537Z,12.07
2023-10-09T02:10:08.493Z,12.07
2023-10-09T02:11:08.503Z,12.08
2023-10-09T02:12:08.502Z,12.05
2023-10-09T02:13:08.825Z,12.03
2023-10-09T02:14:08.418Z,12.07
2023-10-09T02:15:08.492Z,12.05
2023-10-09T02:16:08.426Z,12.05
2023-10-09T02:17:08.382Z,12.05
2023-10-09T02:18:08.438Z,12.05
2023-10-09T02:19:08.358Z,12.03
2023-10-09T02:20:08.355Z,12.03
2023-10-09T02:21:08.442Z,12.03
2023-10-09T02:22:08.322Z,12.00
2023-10-09T02:23:08.305Z,11.99
2023-10-09T02:24:08.311Z,11.95
2023-10-09T02:25:08.297Z,11.91
2023-10-09T02:26:08.275Z,11.91
2023-10-09T02:27:08.283Z,11.91
2023-10-09T02:28:08.237Z,11.91
2023-10-09T02:29:08.236Z,11.91
2023-10-09T02:30:08.278Z,11.91
2023-10-09T02:31:08.282Z,11.91
2023-10-09T02:32:08.183Z,11.91
2023-10-09T02:33:08.429Z,11.89
2023-10-09T02:34:08.170Z,11.91
2023-10-09T02:35:08.158Z,11.85
2023-10-09T02:36:08.185Z,11.83
2023-10-09T02:37:08.116Z,11.81
2023-10-09T02:38:08.101Z,11.80
2023-10-09T02:39:08.137Z,11.80
2023-10-09T02:40:08.068Z,11.81
2023-10-09T02:41:08.071Z,11.78
2023-10-09T02:42:08.145Z,11.78
2023-10-09T02:43:08.034Z,11.77
2023-10-09T02:44:08.038Z,11.74
2023-10-09T02:45:08.114Z,11.76
2023-10-09T02:46:08.001Z,11.73
2023-10-09T02:47:07.983Z,11.74
2023-10-09T02:48:08.075Z,11.71
2023-10-09T02:49:07.974Z,11.73
2023-10-09T02:50:08.037Z,11.71
2023-10-09T02:51:08.008Z,11.71
2023-10-09T02:52:07.914Z,11.76
2023-10-09T02:53:07.917Z,11.76
2023-10-09T02:54:07.953Z,11.76
2023-10-09T02:55:07.880Z,11.76
2023-10-09T02:56:07.861Z,11.77
2023-10-09T02:57:07.884Z,11.77
2023-10-09T02:58:07.856Z,11.77
2023-10-09T02:59:07.830Z,11.76
2023-10-09T03:00:07.899Z,11.77
2023-10-09T03:01:07.846Z,11.77
2023-10-09T03:02:07.779Z,11.77
2023-10-09T03:03:07.870Z,11.76
2023-10-09T03:04:07.774Z,11.74
2023-10-09T03:05:07.750Z,11.74
2023-10-09T03:06:07.809Z,11.77
2023-10-09T03:07:07.753Z,11.76
2023-10-09T03:08:07.713Z,11.77
2023-10-09T03:09:07.727Z,11.76
2023-10-09T03:10:07.675Z,11.76
2023-10-09T03:11:07.668Z,11.76
2023-10-09T03:12:07.778Z,11.74
2023-10-09T03:13:07.643Z,11.74
2023-10-09T03:14:07.620Z,11.76
2023-10-09T03:15:07.635Z,11.74
2023-10-09T03:16:07.601Z,11.76
2023-10-09T03:17:07.681Z,11.77
2023-10-09T03:18:07.670Z,11.80
2023-10-09T03:19:07.559Z,11.81
2023-10-09T03:20:07.533Z,11.80
2023-10-09T03:21:07.616Z,11.80
2023-10-09T03:22:07.527Z,11.78
2023-10-09T03:23:07.497Z,11.76
2023-10-09T03:24:07.549Z,11.76
2023-10-09T03:25:07.476Z,11.74
2023-10-09T03:26:20.936Z,11.76
2023-10-09T03:27:08.480Z,11.76
2023-10-09T03:28:07.431Z,11.77
2023-10-09T03:29:07.420Z,11.78
2023-10-09T03:30:07.441Z,11.78
2023-10-09T03:31:07.436Z,11.80
2023-10-09T03:32:07.382Z,11.80
2023-10-09T03:33:07.467Z,11.80
2023-10-09T03:34:07.361Z,11.81
2023-10-09T03:35:07.364Z,11.83
2023-10-09T03:36:07.360Z,11.85
2023-10-09T03:37:07.332Z,11.85
2023-10-09T03:38:07.298Z,11.85
2023-10-09T03:39:07.306Z,11.85
2023-10-09T03:40:07.330Z,11.81
2023-10-09T03:41:07.262Z,11.80
2023-10-09T03:42:07.269Z,11.80
2023-10-09T03:43:07.233Z,11.78
2023-10-09T03:44:07.212Z,11.78
2023-10-09T03:45:07.248Z,11.77
2023-10-09T03:46:07.224Z,11.77
2023-10-09T03:47:07.181Z,11.78
2023-10-09T03:48:07.212Z,11.77
2023-10-09T03:49:07.155Z,11.78
2023-10-09T03:50:07.173Z,11.77
2023-10-09T03:51:07.180Z,11.76
2023-10-09T03:52:07.132Z,11.74
2023-10-09T03:53:07.103Z,11.74
2023-10-09T03:54:07.156Z,11.73
2023-10-09T03:55:07.102Z,11.74
2023-10-09T03:56:07.168Z,11.73
2023-10-09T03:57:07.076Z,11.76
2023-10-09T03:58:07.103Z,11.73
2023-10-09T03:59:07.039Z,11.73
2023-10-09T04:00:07.112Z,11.74
2023-10-09T04:01:07.010Z,11.74
2023-10-09T04:02:06.979Z,11.76
2023-10-09T04:03:07.145Z,11.74
2023-10-09T04:04:07.061Z,11.74
2023-10-09T04:05:06.950Z,11.77
2023-10-09T04:06:06.949Z,11.74
2023-10-09T04:07:06.916Z,11.74
2023-10-09T04:08:06.897Z,11.74
2023-10-09T04:09:06.952Z,11.73
2023-10-09T04:10:06.874Z,11.73
2023-10-09T04:11:06.862Z,11.74
2023-10-09T04:12:06.855Z,11.73
2023-10-09T04:13:06.855Z,11.73
2023-10-09T04:14:06.836Z,11.73
2023-10-09T04:15:06.864Z,11.74
2023-10-09T04:16:06.788Z,11.77
2023-10-09T04:17:06.783Z,11.77
2023-10-09T04:18:06.831Z,11.77
2023-10-09T04:19:06.897Z,11.78
2023-10-09T04:20:06.733Z,11.77
2023-10-09T04:21:06.770Z,11.78
2023-10-09T04:22:06.711Z,11.78
2023-10-09T04:23:06.783Z,11.78
2023-10-09T04:24:06.710Z,11.80
2023-10-09T04:25:06.676Z,11.81
2023-10-09T04:26:06.668Z,11.81
2023-10-09T04:27:06.657Z,11.81
2023-10-09T04:28:06.645Z,11.80
2023-10-09T04:29:06.644Z,11.81
2023-10-09T04:30:06.611Z,11.80
2023-10-09T04:31:06.620Z,11.80
2023-10-09T04:32:06.590Z,11.80
2023-10-09T04:33:06.634Z,11.78
2023-10-09T04:34:06.554Z,11.80
2023-10-09T04:35:06.540Z,11.78
2023-10-09T04:36:06.537Z,11.80
2023-10-09T04:37:06.534Z,11.81
2023-10-09T04:38:06.527Z,11.78
2023-10-09T04:39:06.521Z,11.80
2023-10-09T04:40:06.472Z,11.80
2023-10-09T04:41:06.519Z,11.80
2023-10-09T04:42:06.475Z,11.81
2023-10-09T04:43:06.494Z,11.81
2023-10-09T04:44:06.425Z,11.83
2023-10-09T04:45:06.444Z,11.83
2023-10-09T04:46:06.467Z,11.80
2023-10-09T04:47:06.408Z,11.78
2023-10-09T04:48:06.448Z,11.80
2023-10-09T04:49:06.348Z,11.78
2023-10-09T04:50:06.343Z,11.77
2023-10-09T04:51:06.419Z,11.78
2023-10-09T04:52:06.324Z,11.78
2023-10-09T04:53:06.326Z,11.80
2023-10-09T04:54:06.329Z,11.78
2023-10-09T04:55:06.267Z,11.80
2023-10-09T04:56:06.275Z,11.80
2023-10-09T04:57:06.304Z,11.81
2023-10-09T04:58:06.234Z,11.83
2023-10-09T04:59:06.228Z,11.83
2023-10-09T05:00:06.235Z,11.83
2023-10-09T05:01:06.213Z,11.83
2023-10-09T05:02:06.170Z,11.83
2023-10-09T05:03:06.261Z,11.86
2023-10-09T05:04:06.298Z,11.85
2023-10-09T05:05:06.142Z,11.85
2023-10-09T05:06:06.240Z,11.88
2023-10-09T05:07:06.115Z,11.86
2023-10-09T05:08:06.100Z,11.86
2023-10-09T05:09:06.111Z,11.86
2023-10-09T05:10:06.091Z,12.36
2023-10-09T05:11:06.092Z,12.86
2023-10-09T05:12:06.118Z,13.21
2023-10-09T05:13:06.032Z,13.49
2023-10-09T05:14:06.027Z,13.75
2023-10-09T05:15:06.096Z,13.94
2023-10-09T05:16:06.018Z,14.07
2023-10-09T05:17:05.990Z,14.16
2023-10-09T05:18:06.114Z,14.20
2023-10-09T05:19:05.960Z,14.28
2023-10-09T05:20:05.953Z,14.28
2023-10-09T05:21:05.951Z,14.28
2023-10-09T05:22:05.926Z,14.31
2023-10-09T05:23:05.910Z,14.33
2023-10-09T05:24:05.920Z,14.37
2023-10-09T05:25:05.938Z,14.40
2023-10-09T05:26:05.863Z,14.41
2023-10-09T05:27:05.870Z,14.45
2023-10-09T05:28:05.823Z,14.48
2023-10-09T05:29:05.840Z,14.51
2023-10-09T05:30:05.870Z,14.48
2023-10-09T05:31:05.789Z,14.38
2023-10-09T05:32:05.776Z,14.26
2023-10-09T05:33:05.910Z,14.23
2023-10-09T05:34:05.758Z,14.20
2023-10-09T05:35:05.735Z,14.19
2023-10-09T05:36:05.766Z,14.03
2023-10-09T05:37:05.719Z,13.79
2023-10-09T05:38:05.699Z,13.55
2023-10-09T05:39:05.904Z,13.36
2023-10-09T05:40:05.688Z,13.19
2023-10-09T05:41:05.719Z,13.02
2023-10-09T05:42:05.674Z,12.90
2023-10-09T05:43:05.653Z,12.80
2023-10-09T05:44:05.635Z,12.69
2023-10-09T05:45:05.628Z,12.62
2023-10-09T05:46:05.691Z,12.51
2023-10-09T05:47:05.585Z,12.45
2023-10-09T05:48:05.709Z,12.37
2023-10-09T05:49:05.622Z,12.33
2023-10-09T05:50:05.540Z,12.30
2023-10-09T05:51:05.573Z,12.26
2023-10-09T05:52:05.518Z,12.21
2023-10-09T05:53:05.511Z,12.20
2023-10-09T05:54:05.514Z,12.15
2023-10-09T05:55:05.474Z,12.12
2023-10-09T05:56:05.459Z,12.14
2023-10-09T05:57:05.474Z,12.10
2023-10-09T05:58:05.450Z,12.07
2023-10-09T05:59:05.416Z,12.05
2023-10-09T06:00:05.450Z,12.05
2023-10-09T06:01:05.422Z,12.03
2023-10-09T06:02:05.382Z,12.03
2023-10-09T06:03:05.504Z,12.00
2023-10-09T06:04:05.453Z,11.99
2023-10-09T06:05:05.507Z,11.99
2023-10-09T06:06:05.341Z,11.99
2023-10-09T06:07:05.325Z,11.99
2023-10-09T06:08:05.344Z,11.97
2023-10-09T06:09:05.318Z,11.99
2023-10-09T06:10:05.295Z,11.97
2023-10-09T06:11:05.256Z,11.99
2023-10-09T06:12:05.334Z,11.99
2023-10-09T06:13:05.434Z,12.00
2023-10-09T06:14:05.222Z,12.02
2023-10-09T06:15:05.229Z,12.00
2023-10-09T06:16:05.235Z,12.02
2023-10-09T06:17:05.197Z,12.03
2023-10-09T06:18:05.286Z,12.05
2023-10-09T06:19:05.220Z,12.03
2023-10-09T06:20:05.138Z,12.07
2023-10-09T06:21:05.164Z,12.05
2023-10-09T06:22:05.136Z,12.08
2023-10-09T06:23:05.093Z,12.07
2023-10-09T06:24:05.125Z,12.10
2023-10-09T06:25:05.070Z,12.10
2023-10-09T06:26:05.127Z,12.10
2023-10-09T06:27:05.065Z,12.08
2023-10-09T06:28:05.031Z,12.10
2023-10-09T06:29:05.015Z,12.08
2023-10-09T06:30:05.062Z,12.07
2023-10-09T06:31:05.016Z,12.07
2023-10-09T06:32:04.978Z,12.07
2023-10-09T06:33:05.031Z,12.08
2023-10-09T06:34:04.970Z,12.08
2023-10-09T06:35:04.956Z,12.08
2023-10-09T06:36:04.970Z,12.03
2023-10-09T06:37:04.907Z,12.02
2023-10-09T06:38:05.383Z,12.02
2023-10-09T06:39:04.915Z,12.03
2023-10-09T06:40:04.894Z,12.05
2023-10-09T06:41:04.855Z,12.07
2023-10-09T06:42:04.927Z,12.08
2023-10-09T06:43:04.828Z,12.10
2023-10-09T06:44:07.089Z,12.12
2023-10-09T06:45:04.857Z,12.14
2023-10-09T06:46:04.849Z,12.15
2023-10-09T06:47:04.772Z,12.18
2023-10-09T06:48:04.881Z,12.20
2023-10-09T06:49:04.746Z,12.21
2023-10-09T06:50:04.752Z,12.21
2023-10-09T06:51:04.746Z,12.25
2023-10-09T06:52:04.711Z,12.26
2023-10-09T06:53:04.689Z,12.26
2023-10-09T06:54:04.748Z,12.28
2023-10-09T06:55:04.678Z,12.29
2023-10-09T06:56:04.657Z,12.30
2023-10-09T06:57:04.658Z,12.33
2023-10-09T06:58:04.624Z,12.32
2023-10-09T06:59:04.630Z,12.33
2023-10-09T07:00:04.643Z,12.35
2023-10-09T07:01:04.625Z,12.36
2023-10-09T07:02:04.579Z,12.37
2023-10-09T07:03:04.622Z,12.37
2023-10-09T07:04:04.665Z,12.39
2023-10-09T07:05:04.531Z,12.37
2023-10-09T07:06:04.528Z,12.39
2023-10-09T07:07:04.506Z,12.43
2023-10-09T07:08:04.502Z,12.44
2023-10-09T07:09:04.572Z,12.47
2023-10-09T07:10:04.490Z,12.47
2023-10-09T07:11:04.456Z,12.50
2023-10-09T07:12:04.550Z,12.50
2023-10-09T07:13:05.440Z,12.51
2023-10-09T07:14:04.432Z,12.51
2023-10-09T07:15:04.458Z,12.54
2023-10-09T07:16:04.438Z,12.55
2023-10-09T07:17:04.386Z,12.61
2023-10-09T07:18:04.481Z,12.61
2023-10-09T07:19:04.343Z,12.62
2023-10-09T07:20:04.332Z,12.63
2023-10-09T07:21:04.331Z,12.65
2023-10-09T07:22:04.395Z,12.66
2023-10-09T07:23:04.309Z,12.69
2023-10-09T07:24:04.296Z,12.70
2023-10-09T07:25:04.272Z,12.73
2023-10-09T07:26:04.261Z,12.73
2023-10-09T07:27:04.265Z,12.75
2023-10-09T07:28:04.270Z,12.78
2023-10-09T07:29:04.210Z,12.78
2023-10-09T07:30:04.230Z,12.80
2023-10-09T07:31:04.266Z,12.81
2023-10-09T07:32:04.185Z,12.81
2023-10-09T07:33:04.260Z,12.81
2023-10-09T07:34:04.143Z,12.83
2023-10-09T07:35:04.127Z,12.83
2023-10-09T07:36:04.169Z,12.84
2023-10-09T07:37:04.123Z,12.84
2023-10-09T07:38:04.101Z,12.86
2023-10-09T07:39:04.317Z,12.86
2023-10-09T07:40:04.067Z,12.87
2023-10-09T07:41:04.040Z,12.88
2023-10-09T07:42:04.094Z,12.88
2023-10-09T07:43:04.078Z,12.88
2023-10-09T07:44:04.019Z,12.90
2023-10-09T07:45:04.069Z,12.91
2023-10-09T07:46:04.140Z,12.93
2023-10-09T07:47:03.992Z,12.95
2023-10-09T07:48:03.991Z,12.94
2023-10-09T07:49:03.942Z,12.95
2023-10-09T07:50:03.956Z,12.95
2023-10-09T07:51:03.949Z,12.98
2023-10-09T07:52:03.923Z,12.99
2023-10-09T07:53:03.898Z,13.01
2023-10-09T07:54:03.891Z,13.01
2023-10-09T07:55:04.029Z,12.99
2023-10-09T07:56:03.904Z,12.98
2023-10-09T07:57:03.841Z,12.98
2023-10-09T07:58:03.839Z,12.98
2023-10-09T07:59:03.813Z,12.95
2023-10-09T08:00:03.807Z,13.01
2023-10-09T08:01:03.819Z,13.03
2023-10-09T08:02:03.971Z,13.05
2023-10-09T08:03:03.807Z,13.05
2023-10-09T08:04:03.842Z,13.08
2023-10-09T08:05:03.722Z,13.09
2023-10-09T08:06:03.730Z,13.11
2023-10-09T08:08:00.896Z,13.12
2023-10-09T08:08:12.208Z,13.12
2023-10-09T08:09:04.659Z,13.16
2023-10-09T08:10:03.670Z,13.17
2023-10-09T08:11:03.666Z,13.19
2023-10-09T08:12:03.629Z,13.19
2023-10-09T08:13:03.628Z,13.20
2023-10-09T08:14:03.614Z,13.24
2023-10-09T08:15:03.617Z,13.23
2023-10-09T08:16:03.654Z,13.26
2023-10-09T08:17:03.560Z,13.28
2023-10-09T08:18:03.607Z,13.28
2023-10-09T08:19:03.531Z,13.30
2023-10-09T08:20:03.543Z,13.30
2023-10-09T08:21:03.511Z,13.33
2023-10-09T08:22:03.501Z,13.36
2023-10-09T08:23:03.484Z,13.39
2023-10-09T08:24:03.479Z,13.40
2023-10-09T08:25:03.501Z,13.43
2023-10-09T08:26:03.443Z,13.45
2023-10-09T08:27:03.423Z,13.46
2023-10-09T08:28:03.420Z,13.49
2023-10-09T08:29:03.419Z,13.50
2023-10-09T08:30:03.399Z,13.52
2023-10-09T08:31:03.393Z,13.55
2023-10-09T08:32:03.367Z,13.57
2023-10-09T08:35:03.677Z,13.62
2023-10-09T08:36:03.467Z,13.64
2023-10-09T08:37:03.370Z,13.65
2023-10-09T08:38:03.330Z,13.65
2023-10-09T08:39:03.285Z,13.65
2023-10-09T08:40:03.254Z,13.64
2023-10-09T08:41:03.279Z,13.65
2023-10-09T08:42:05.095Z,13.67
2023-10-09T08:43:03.241Z,13.68
2023-10-09T08:44:03.257Z,13.71
2023-10-09T08:45:03.184Z,13.70
2023-10-09T08:46:03.410Z,13.73
2023-10-09T08:47:03.217Z,13.75
2023-10-09T08:48:03.237Z,13.78
2023-10-09T08:49:03.133Z,13.79
2023-10-09T08:50:03.179Z,13.79
2023-10-09T08:51:03.096Z,13.82
2023-10-09T08:52:03.084Z,13.82
2023-10-09T08:53:03.129Z,13.85
2023-10-09T08:54:03.061Z,13.86
2023-10-09T08:55:03.039Z,13.87
2023-10-09T08:56:03.060Z,13.87
2023-10-09T08:57:03.006Z,13.89
2023-10-09T08:58:03.060Z,13.91
2023-10-09T08:59:03.129Z,13.91
2023-10-09T09:00:02.986Z,13.93
2023-10-09T09:01:02.996Z,13.93
2023-10-09T09:02:03.030Z,13.93
2023-10-09T09:03:03.053Z,13.95
2023-10-09T09:04:02.935Z,13.97
2023-10-09T09:05:02.969Z,13.98
2023-10-09T09:06:02.903Z,14.00
2023-10-09T09:07:02.904Z,14.03
2023-10-09T09:08:02.906Z,14.04
2023-10-09T09:09:02.881Z,14.04
2023-10-09T09:10:02.852Z,14.07
2023-10-09T09:11:02.851Z,14.08
2023-10-09T09:12:02.842Z,14.12
2023-10-09T09:13:02.819Z,14.12
2023-10-09T09:14:02.853Z,14.13
2023-10-09T09:15:02.778Z,14.16
2023-10-09T09:16:02.827Z,14.16
2023-10-09T09:17:02.848Z,14.18
2023-10-09T09:18:03.801Z,14.19
2023-10-09T09:19:02.722Z,14.22
2023-10-09T09:20:02.768Z,14.22
2023-10-09T09:21:02.714Z,14.23
2023-10-09T09:22:02.687Z,14.26
2023-10-09T09:23:05.045Z,14.28
2023-10-09T09:24:02.705Z,14.30
2023-10-09T09:25:02.640Z,14.31
2023-10-09T09:26:02.778Z,14.33
2023-10-09T09:27:02.633Z,14.33
2023-10-09T09:28:02.609Z,14.34
2023-10-09T09:29:02.629Z,14.36
2023-10-09T09:30:02.594Z,14.37
2023-10-09T09:31:02.631Z,14.37
2023-10-09T09:32:02.619Z,14.37
2023-10-09T09:33:02.632Z,14.40
2023-10-09T09:34:02.526Z,14.40
2023-10-09T09:35:02.586Z,14.41
2023-10-09T09:36:02.493Z,14.43
2023-10-09T09:37:02.476Z,14.43
2023-10-09T09:38:02.503Z,14.44
2023-10-09T09:39:02.738Z,14.44
2023-10-09T09:40:02.710Z,14.44
2023-10-09T09:41:02.507Z,14.45
2023-10-09T09:42:02.409Z,14.49
2023-10-09T09:43:02.423Z,14.49
2023-10-09T09:44:02.495Z,14.51
2023-10-09T09:45:02.407Z,14.52
2023-10-09T09:46:02.591Z,14.52
2023-10-09T09:47:02.415Z,14.53
2023-10-09T09:48:02.488Z,14.53
2023-10-09T09:49:02.334Z,14.55
2023-10-09T09:50:02.721Z,14.55
2023-10-09T09:51:02.296Z,14.58
2023-10-09T09:52:02.283Z,14.59
2023-10-09T09:53:02.319Z,14.61
2023-10-09T09:54:02.354Z,14.61
2023-10-09T09:55:02.248Z,14.63
2023-10-09T09:56:02.274Z,14.66
2023-10-09T09:57:02.209Z,14.66
2023-10-09T09:58:02.217Z,14.68
2023-10-09T09:59:02.218Z,14.70
2023-10-09T10:00:02.226Z,14.68
2023-10-09T10:01:02.246Z,14.73
2023-10-09T10:02:02.249Z,14.73
2023-10-09T10:03:02.291Z,14.74
2023-10-09T10:04:02.115Z,14.78
2023-10-09T10:05:02.188Z,14.79
2023-10-09T10:06:02.097Z,14.85
2023-10-09T10:07:02.080Z,14.87
2023-10-09T10:08:02.091Z,14.89
2023-10-09T10:09:02.078Z,14.92
2023-10-09T10:10:02.062Z,14.94
2023-10-09T10:11:02.090Z,15.02
2023-10-09T10:12:02.025Z,15.07
2023-10-09T10:13:02.018Z,15.14
2023-10-09T10:14:02.028Z,15.19
2023-10-09T10:15:01.994Z,15.25
2023-10-09T10:16:02.957Z,15.27
2023-10-09T10:17:02.065Z,15.29
2023-10-09T10:18:02.036Z,15.30
2023-10-09T10:19:01.912Z,15.32
2023-10-09T10:20:01.987Z,15.33
2023-10-09T10:21:01.882Z,15.35
2023-10-09T10:22:01.880Z,15.37
2023-10-09T10:23:01.887Z,15.41
2023-10-09T10:24:01.832Z,15.44
2023-10-09T10:25:01.831Z,15.47
2023-10-09T10:26:02.084Z,15.50
2023-10-09T10:27:01.842Z,15.50
2023-10-09T10:28:02.078Z,15.54
2023-10-09T10:29:01.810Z,15.54
2023-10-09T10:30:01.768Z,15.57
2023-10-09T10:31:01.899Z,15.57
2023-10-09T10:32:02.384Z,15.60
2023-10-09T10:33:01.759Z,15.63
2023-10-09T10:34:01.704Z,15.67
2023-10-09T10:35:01.719Z,15.70
2023-10-09T10:36:01.724Z,15.78
2023-10-09T10:37:01.700Z,15.85
2023-10-09T10:38:01.725Z,15.90
2023-10-09T10:39:01.641Z,15.94
2023-10-09T10:40:01.631Z,16.03
2023-10-09T10:41:01.663Z,16.09
2023-10-09T10:42:01.608Z,16.17
2023-10-09T10:43:01.599Z,16.26
2023-10-09T10:44:01.662Z,16.31
2023-10-09T10:45:01.582Z,16.36
2023-10-09T10:46:01.681Z,16.40
2023-10-09T10:47:01.627Z,16.47
2023-10-09T10:48:01.565Z,16.50
2023-10-09T10:49:01.532Z,16.58
2023-10-09T10:50:01.530Z,16.68
2023-10-09T10:51:01.511Z,16.76
2023-10-09T10:52:01.465Z,16.86
2023-10-09T10:53:02.825Z,16.94
2023-10-09T10:54:01.491Z,16.95
2023-10-09T10:55:01.447Z,16.97
2023-10-09T10:56:01.488Z,17.01
2023-10-09T10:57:01.422Z,17.02
2023-10-09T10:58:01.386Z,17.04
2023-10-09T10:59:01.382Z,17.09
2023-10-09T11:00:01.373Z,17.07
2023-10-09T11:01:01.369Z,17.09
2023-10-09T11:02:01.414Z,17.12
2023-10-09T11:03:01.479Z,17.14
2023-10-09T11:04:01.349Z,17.14
2023-10-09T11:05:01.399Z,17.16
2023-10-09T11:06:01.272Z,17.17
2023-10-09T11:07:03.114Z,17.20
2023-10-09T11:08:01.271Z,17.24
2023-10-09T11:09:01.258Z,17.24
2023-10-09T11:10:01.460Z,17.27
2023-10-09T11:11:01.222Z,17.28
2023-10-09T11:12:01.195Z,17.30
2023-10-09T11:13:01.201Z,17.31
2023-10-09T11:14:01.211Z,17.32
2023-10-09T11:15:01.151Z,17.34
2023-10-09T11:16:01.141Z,17.34
2023-10-09T11:17:01.172Z,17.35
2023-10-09T11:18:01.165Z,17.37
2023-10-09T11:19:01.173Z,17.37
2023-10-09T11:20:01.111Z,17.39
2023-10-09T11:21:01.090Z,17.41
2023-10-09T11:22:01.059Z,17.39
2023-10-09T11:23:01.134Z,17.39
2023-10-09T11:24:01.066Z,17.41
2023-10-09T11:25:01.026Z,17.42
2023-10-09T11:26:01.100Z,17.42
2023-10-09T11:27:00.999Z,17.46
2023-10-09T11:28:00.994Z,17.47
2023-10-09T11:29:01.054Z,17.49
2023-10-09T11:30:00.951Z,17.52
2023-10-09T11:31:01.019Z,17.54
2023-10-09T11:32:01.381Z,17.57
2023-10-09T11:33:01.021Z,17.60
2023-10-09T11:34:00.899Z,17.63
2023-10-09T11:35:00.918Z,17.68
2023-10-09T11:36:00.922Z,17.69
2023-10-09T11:37:00.881Z,17.73
2023-10-09T11:38:00.899Z,17.76
2023-10-09T11:39:00.838Z,17.76
2023-10-09T11:40:00.838Z,17.78
2023-10-09T11:41:00.831Z,17.78
2023-10-09T11:42:00.814Z,17.78
2023-10-09T11:43:00.780Z,17.78
2023-10-09T11:44:00.796Z,17.78
2023-10-09T11:45:00.762Z,17.80
2023-10-09T11:46:00.786Z,17.82
2023-10-09T11:47:00.961Z,17.84
2023-10-09T11:48:01.054Z,17.86
2023-10-09T11:49:00.701Z,17.87
2023-10-09T11:50:00.722Z,17.88
2023-10-09T11:51:00.697Z,17.88
2023-10-09T11:52:00.674Z,17.87
2023-10-09T11:53:00.734Z,17.84
2023-10-09T11:54:00.634Z,17.84
2023-10-09T11:55:00.628Z,17.84
2023-10-09T11:56:00.636Z,17.86
2023-10-09T11:57:00.601Z,17.88
2023-10-09T11:58:00.580Z,17.93
2023-10-09T11:59:00.612Z,17.94
2023-10-09T12:00:00.601Z,17.98
2023-10-09T12:01:00.735Z,17.95
2023-10-09T12:02:00.602Z,17.94
2023-10-09T12:03:00.595Z,17.95
2023-10-09T12:04:00.554Z,17.97
2023-10-09T12:05:00.537Z,18.00
2023-10-09T12:06:00.483Z,18.03
2023-10-09T12:07:00.462Z,18.02
2023-10-09T12:08:00.544Z,17.97
2023-10-09T12:09:00.437Z,18.02
2023-10-09T12:10:00.435Z,18.02
2023-10-09T12:11:00.449Z,18.02
2023-10-09T12:12:04.051Z,18.05
2023-10-09T12:13:00.416Z,18.03
2023-10-09T12:14:00.384Z,18.02
2023-10-09T12:15:00.383Z,18.03
2023-10-09T12:16:00.335Z,18.03
2023-10-09T12:17:00.422Z,18.03
2023-10-09T12:18:00.347Z,18.05
2023-10-09T12:19:00.331Z,18.05
2023-10-09T12:20:00.471Z,18.08
2023-10-09T12:21:00.282Z,18.11
2023-10-09T12:22:00.268Z,18.15
2023-10-09T12:23:00.281Z,18.23
2023-10-09T12:24:02.632Z,18.23
2023-10-09T12:25:00.271Z,18.28
2023-10-09T12:26:00.276Z,18.30
2023-10-09T12:27:00.200Z,18.31
2023-10-09T12:28:00.175Z,18.33
2023-10-09T12:29:00.211Z,18.36
2023-10-09T12:30:00.187Z,18.39
2023-10-09T12:31:00.152Z,18.41
2023-10-09T12:32:00.126Z,18.43
2023-10-09T12:33:00.269Z,18.49
2023-10-09T12:34:00.270Z,18.60
2023-10-09T12:35:00.113Z,18.64
2023-10-09T12:36:00.096Z,18.66
2023-10-09T12:37:00.059Z,18.68
2023-10-09T12:38:00.077Z,18.68
2023-10-09T12:39:00.275Z,18.66
2023-10-09T12:40:00.030Z,18.66
2023-10-09T12:41:00.027Z,18.66
2023-10-09T12:41:59.988Z,18.67
2023-10-09T12:43:00.008Z,18.66
2023-10-09T12:44:00.024Z,18.67
2023-10-09T12:44:59.945Z,18.64
2023-10-09T12:45:59.935Z,18.63
2023-10-09T12:46:59.994Z,18.60
2023-10-09T12:48:00.166Z,18.57
2023-10-09T12:48:59.900Z,18.53
2023-10-09T12:49:59.906Z,18.51
2023-10-09T12:50:59.874Z,18.49
2023-10-09T12:51:59.916Z,18.48
2023-10-09T12:53:00.222Z,18.46
2023-10-09T12:53:59.827Z,18.43